sensor_id;sensor_type;location;lat;lon;timestamp;temperature;humidity
1381;DHT22;684;48.342;10.096;2022-10-26T00:00:09;13.20;37.00
1381;DHT22;684;48.342;10.096;2022-10-26T00:02:36;13.20;36.80
1381;DHT22;684;48.342;10.096;2022-10-26T00:05:04;13.20;36.70
1381;DHT22;684;48.342;10.096;2022-10-26T00:07:30;13.20;36.80
1381;DHT22;684;48.342;10.096;2022-10-26T00:09:57;13.20;36.70
1381;DHT22;684;48.342;10.096;2022-10-26T00:12:24;13.10;36.70
1381;DHT22;684;48.342;10.096;2022-10-26T00:14:51;13.10;36.70
1381;DHT22;684;48.342;10.096;2022-10-26T00:17:19;13.10;36.80
1381;DHT22;684;48.342;10.096;2022-10-26T00:19:45;13.10;37.00
1381;DHT22;684;48.342;10.096;2022-10-26T00:22:12;13.10;37.10
1381;DHT22;684;48.342;10.096;2022-10-26T00:24:39;13.10;37.20
1381;DHT22;684;48.342;10.096;2022-10-26T00:27:06;13.00;37.20
1381;DHT22;684;48.342;10.096;2022-10-26T00:29:32;13.00;37.20
1381;DHT22;684;48.342;10.096;2022-10-26T00:31:59;13.00;37.30
1381;DHT22;684;48.342;10.096;2022-10-26T00:34:27;13.00;37.40
1381;DHT22;684;48.342;10.096;2022-10-26T00:36:54;13.00;37.60
1381;DHT22;684;48.342;10.096;2022-10-26T00:39:21;13.00;38.30
1381;DHT22;684;48.342;10.096;2022-10-26T00:41:47;13.00;37.80
1381;DHT22;684;48.342;10.096;2022-10-26T00:47:45;13.00;38.20
1381;DHT22;684;48.342;10.096;2022-10-26T00:50:17;13.00;38.10
1381;DHT22;684;48.342;10.096;2022-10-26T00:52:45;13.10;37.90
1381;DHT22;684;48.342;10.096;2022-10-26T00:55:12;13.10;38.30
1381;DHT22;684;48.342;10.096;2022-10-26T00:57:39;13.10;38.20
1381;DHT22;684;48.342;10.096;2022-10-26T01:00:07;13.10;38.20
1381;DHT22;684;48.342;10.096;2022-10-26T01:02:35;13.20;38.10
1381;DHT22;684;48.342;10.096;2022-10-26T01:05:02;13.20;38.00
1381;DHT22;684;48.342;10.096;2022-10-26T01:07:32;13.20;38.00
1381;DHT22;684;48.342;10.096;2022-10-26T01:10:00;13.10;38.20
1381;DHT22;684;48.342;10.096;2022-10-26T01:12:27;13.20;38.10
1381;DHT22;684;48.342;10.096;2022-10-26T01:14:54;13.20;38.20
1381;DHT22;684;48.342;10.096;2022-10-26T01:17:29;13.20;38.20
1381;DHT22;684;48.342;10.096;2022-10-26T01:23:07;13.20;38.20
1381;DHT22;684;48.342;10.096;2022-10-26T01:26:06;13.20;38.20
1381;DHT22;684;48.342;10.096;2022-10-26T01:28:45;13.20;38.40
1381;DHT22;684;48.342;10.096;2022-10-26T01:31:22;13.20;38.30
1381;DHT22;684;48.342;10.096;2022-10-26T01:33:55;13.20;38.40
1381;DHT22;684;48.342;10.096;2022-10-26T01:36:30;13.20;38.20
1381;DHT22;684;48.342;10.096;2022-10-26T01:39:02;13.20;38.20
1381;DHT22;684;48.342;10.096;2022-10-26T01:41:34;13.20;38.30
1381;DHT22;684;48.342;10.096;2022-10-26T01:44:04;13.20;38.40
1381;DHT22;684;48.342;10.096;2022-10-26T01:46:36;13.20;38.50
1381;DHT22;684;48.342;10.096;2022-10-26T01:49:07;13.10;38.60
1381;DHT22;684;48.342;10.096;2022-10-26T01:51:37;13.10;38.70
1381;DHT22;684;48.342;10.096;2022-10-26T01:54:04;13.10;38.70
1381;DHT22;684;48.342;10.096;2022-10-26T01:56:34;13.20;38.60
1381;DHT22;684;48.342;10.096;2022-10-26T01:59:15;13.20;38.50
1381;DHT22;684;48.342;10.096;2022-10-26T02:04:30;13.20;38.40
1381;DHT22;684;48.342;10.096;2022-10-26T02:07:01;13.20;38.50
1381;DHT22;684;48.342;10.096;2022-10-26T02:09:34;13.20;38.30
1381;DHT22;684;48.342;10.096;2022-10-26T02:12:10;13.20;38.50
1381;DHT22;684;48.342;10.096;2022-10-26T02:14:45;13.20;38.40
1381;DHT22;684;48.342;10.096;2022-10-26T02:17:18;13.10;38.50
1381;DHT22;684;48.342;10.096;2022-10-26T02:19:51;13.10;38.30
1381;DHT22;684;48.342;10.096;2022-10-26T02:22:24;13.10;38.90
1381;DHT22;684;48.342;10.096;2022-10-26T02:24:53;13.10;38.40
1381;DHT22;684;48.342;10.096;2022-10-26T02:27:22;13.10;38.30
1381;DHT22;684;48.342;10.096;2022-10-26T02:29:53;13.00;38.40
1381;DHT22;684;48.342;10.096;2022-10-26T02:32:22;13.00;38.50
1381;DHT22;684;48.342;10.096;2022-10-26T02:34:52;13.00;38.50
1381;DHT22;684;48.342;10.096;2022-10-26T02:37:23;13.10;38.50
1381;DHT22;684;48.342;10.096;2022-10-26T02:39:52;13.10;38.40
1381;DHT22;684;48.342;10.096;2022-10-26T02:45:46;12.90;38.80
1381;DHT22;684;48.342;10.096;2022-10-26T02:48:14;12.90;38.90
1381;DHT22;684;48.342;10.096;2022-10-26T02:50:50;12.90;38.80
1381;DHT22;684;48.342;10.096;2022-10-26T02:53:24;12.90;39.10
1381;DHT22;684;48.342;10.096;2022-10-26T02:55:52;12.90;39.10
1381;DHT22;684;48.342;10.096;2022-10-26T02:58:22;12.90;39.00
1381;DHT22;684;48.342;10.096;2022-10-26T03:00:50;12.90;39.10
1381;DHT22;684;48.342;10.096;2022-10-26T03:03:18;12.90;39.00
1381;DHT22;684;48.342;10.096;2022-10-26T03:05:47;12.80;39.10
1381;DHT22;684;48.342;10.096;2022-10-26T03:08:13;12.90;39.10
1381;DHT22;684;48.342;10.096;2022-10-26T03:10:42;12.90;39.10
1381;DHT22;684;48.342;10.096;2022-10-26T03:13:10;12.80;39.10
1381;DHT22;684;48.342;10.096;2022-10-26T03:15:38;12.80;39.00
1381;DHT22;684;48.342;10.096;2022-10-26T03:18:05;12.70;39.00
1381;DHT22;684;48.342;10.096;2022-10-26T03:20:32;12.70;39.10
1381;DHT22;684;48.342;10.096;2022-10-26T03:23:00;12.70;39.10
1381;DHT22;684;48.342;10.096;2022-10-26T03:25:27;12.70;39.20
1381;DHT22;684;48.342;10.096;2022-10-26T03:27:57;12.60;39.10
1381;DHT22;684;48.342;10.096;2022-10-26T03:30:24;12.70;39.50
1381;DHT22;684;48.342;10.096;2022-10-26T03:32:51;12.80;39.20
1381;DHT22;684;48.342;10.096;2022-10-26T03:35:18;12.70;39.20
1381;DHT22;684;48.342;10.096;2022-10-26T03:37:45;12.70;40.50
1381;DHT22;684;48.342;10.096;2022-10-26T03:40:13;12.80;39.50
1381;DHT22;684;48.342;10.096;2022-10-26T03:42:40;12.80;39.30
1381;DHT22;684;48.342;10.096;2022-10-26T03:45:08;12.90;39.20
1381;DHT22;684;48.342;10.096;2022-10-26T03:47:42;12.90;39.30
1381;DHT22;684;48.342;10.096;2022-10-26T03:50:09;12.90;39.30
1381;DHT22;684;48.342;10.096;2022-10-26T03:52:37;12.80;39.30
1381;DHT22;684;48.342;10.096;2022-10-26T03:55:04;12.90;39.40
1381;DHT22;684;48.342;10.096;2022-10-26T03:57:33;12.90;39.30
1381;DHT22;684;48.342;10.096;2022-10-26T03:59:59;12.90;39.40
1381;DHT22;684;48.342;10.096;2022-10-26T04:02:26;13.00;39.60
1381;DHT22;684;48.342;10.096;2022-10-26T04:04:53;13.00;39.50
1381;DHT22;684;48.342;10.096;2022-10-26T04:07:20;13.00;39.70
1381;DHT22;684;48.342;10.096;2022-10-26T04:09:46;13.00;39.50
1381;DHT22;684;48.342;10.096;2022-10-26T04:12:13;13.00;39.50
1381;DHT22;684;48.342;10.096;2022-10-26T04:14:41;13.10;39.50
1381;DHT22;684;48.342;10.096;2022-10-26T04:17:08;13.00;39.70
1381;DHT22;684;48.342;10.096;2022-10-26T04:19:35;13.10;39.70
1381;DHT22;684;48.342;10.096;2022-10-26T04:22:01;13.20;39.50
1381;DHT22;684;48.342;10.096;2022-10-26T04:24:28;13.20;39.40
1381;DHT22;684;48.342;10.096;2022-10-26T04:26:55;13.20;39.50
1381;DHT22;684;48.342;10.096;2022-10-26T04:29:22;13.30;39.50
1381;DHT22;684;48.342;10.096;2022-10-26T04:31:50;13.20;39.40
1381;DHT22;684;48.342;10.096;2022-10-26T04:34:16;13.30;39.70
1381;DHT22;684;48.342;10.096;2022-10-26T04:36:43;13.30;39.60
1381;DHT22;684;48.342;10.096;2022-10-26T04:39:10;13.30;39.70
1381;DHT22;684;48.342;10.096;2022-10-26T04:41:37;13.30;39.70
1381;DHT22;684;48.342;10.096;2022-10-26T04:44:04;13.30;39.80
1381;DHT22;684;48.342;10.096;2022-10-26T04:46:30;13.40;39.70
1381;DHT22;684;48.342;10.096;2022-10-26T04:48:59;13.30;39.70
1381;DHT22;684;48.342;10.096;2022-10-26T04:51:25;13.30;39.80
1381;DHT22;684;48.342;10.096;2022-10-26T04:53:52;13.30;39.70
1381;DHT22;684;48.342;10.096;2022-10-26T04:56:19;13.30;39.80
1381;DHT22;684;48.342;10.096;2022-10-26T04:58:46;13.30;39.80
1381;DHT22;684;48.342;10.096;2022-10-26T05:01:13;13.30;39.70
1381;DHT22;684;48.342;10.096;2022-10-26T05:03:39;13.40;39.80
1381;DHT22;684;48.342;10.096;2022-10-26T05:06:08;13.40;39.80
1381;DHT22;684;48.342;10.096;2022-10-26T05:08:34;13.40;39.70
1381;DHT22;684;48.342;10.096;2022-10-26T05:11:01;13.30;39.80
1381;DHT22;684;48.342;10.096;2022-10-26T05:13:28;13.30;39.90
1381;DHT22;684;48.342;10.096;2022-10-26T05:15:55;13.40;39.90
1381;DHT22;684;48.342;10.096;2022-10-26T05:18:21;13.30;40.00
1381;DHT22;684;48.342;10.096;2022-10-26T05:20:51;13.40;39.90
1381;DHT22;684;48.342;10.096;2022-10-26T05:23:20;13.40;39.70
1381;DHT22;684;48.342;10.096;2022-10-26T05:25:47;13.40;40.40
1381;DHT22;684;48.342;10.096;2022-10-26T05:28:15;13.40;40.10
1381;DHT22;684;48.342;10.096;2022-10-26T05:30:44;13.30;40.00
1381;DHT22;684;48.342;10.096;2022-10-26T05:33:12;13.30;40.10
1381;DHT22;684;48.342;10.096;2022-10-26T05:35:39;13.30;40.10
1381;DHT22;684;48.342;10.096;2022-10-26T05:38:07;13.30;40.10
1381;DHT22;684;48.342;10.096;2022-10-26T05:40:35;13.30;40.40
1381;DHT22;684;48.342;10.096;2022-10-26T05:43:02;13.30;40.50
1381;DHT22;684;48.342;10.096;2022-10-26T05:45:29;13.30;40.40
1381;DHT22;684;48.342;10.096;2022-10-26T05:47:56;13.30;40.40
1381;DHT22;684;48.342;10.096;2022-10-26T05:50:23;13.30;40.50
1381;DHT22;684;48.342;10.096;2022-10-26T05:52:50;13.30;40.50
1381;DHT22;684;48.342;10.096;2022-10-26T05:55:17;13.30;40.50
1381;DHT22;684;48.342;10.096;2022-10-26T05:57:46;13.30;40.60
1381;DHT22;684;48.342;10.096;2022-10-26T06:00:18;13.30;40.80
1381;DHT22;684;48.342;10.096;2022-10-26T06:02:59;13.30;40.90
1381;DHT22;684;48.342;10.096;2022-10-26T06:05:31;13.40;41.10
1381;DHT22;684;48.342;10.096;2022-10-26T06:08:00;13.40;40.80
1381;DHT22;684;48.342;10.096;2022-10-26T06:10:27;13.40;40.80
1381;DHT22;684;48.342;10.096;2022-10-26T06:12:55;13.40;40.70
1381;DHT22;684;48.342;10.096;2022-10-26T06:15:23;13.40;40.90
1381;DHT22;684;48.342;10.096;2022-10-26T06:17:57;13.50;40.80
1381;DHT22;684;48.342;10.096;2022-10-26T06:20:40;13.50;41.00
1381;DHT22;684;48.342;10.096;2022-10-26T06:23:35;13.50;41.00
1381;DHT22;684;48.342;10.096;2022-10-26T06:26:11;13.50;41.00
1381;DHT22;684;48.342;10.096;2022-10-26T06:28:46;13.50;40.90
1381;DHT22;684;48.342;10.096;2022-10-26T06:31:15;13.60;40.70
1381;DHT22;684;48.342;10.096;2022-10-26T06:33:42;13.60;40.90
1381;DHT22;684;48.342;10.096;2022-10-26T06:36:19;13.60;40.70
1381;DHT22;684;48.342;10.096;2022-10-26T06:38:47;13.70;40.70
1381;DHT22;684;48.342;10.096;2022-10-26T06:41:15;13.70;40.70
1381;DHT22;684;48.342;10.096;2022-10-26T06:43:45;13.70;40.80
1381;DHT22;684;48.342;10.096;2022-10-26T06:46:19;13.70;41.30
1381;DHT22;684;48.342;10.096;2022-10-26T06:48:52;13.70;40.70
1381;DHT22;684;48.342;10.096;2022-10-26T06:51:22;13.70;40.70
1381;DHT22;684;48.342;10.096;2022-10-26T06:53:54;13.70;40.70
1381;DHT22;684;48.342;10.096;2022-10-26T06:56:22;13.80;40.80
1381;DHT22;684;48.342;10.096;2022-10-26T06:58:52;13.80;40.70
1381;DHT22;684;48.342;10.096;2022-10-26T07:01:20;13.80;40.40
1381;DHT22;684;48.342;10.096;2022-10-26T07:03:47;13.90;40.50
1381;DHT22;684;48.342;10.096;2022-10-26T07:06:14;14.20;41.30
1381;DHT22;684;48.342;10.096;2022-10-26T07:08:40;14.60;40.00
1381;DHT22;684;48.342;10.096;2022-10-26T07:11:07;15.00;39.50
1381;DHT22;684;48.342;10.096;2022-10-26T07:13:34;15.40;39.00
1381;DHT22;684;48.342;10.096;2022-10-26T07:16:03;15.70;37.90
1381;DHT22;684;48.342;10.096;2022-10-26T07:18:29;15.80;36.80
1381;DHT22;684;48.342;10.096;2022-10-26T07:20:57;15.80;35.90
1381;DHT22;684;48.342;10.096;2022-10-26T07:23:24;15.80;34.80
1381;DHT22;684;48.342;10.096;2022-10-26T07:25:51;15.80;34.50
1381;DHT22;684;48.342;10.096;2022-10-26T07:28:17;15.70;34.70
1381;DHT22;684;48.342;10.096;2022-10-26T07:30:44;15.70;34.70
1381;DHT22;684;48.342;10.096;2022-10-26T07:33:13;15.60;34.90
1381;DHT22;684;48.342;10.096;2022-10-26T07:35:40;15.60;35.10
1381;DHT22;684;48.342;10.096;2022-10-26T07:38:08;15.50;35.30
1381;DHT22;684;48.342;10.096;2022-10-26T07:40:35;15.40;35.60
1381;DHT22;684;48.342;10.096;2022-10-26T07:43:02;15.50;35.80
1381;DHT22;684;48.342;10.096;2022-10-26T07:45:29;15.60;35.60
1381;DHT22;684;48.342;10.096;2022-10-26T07:47:56;15.70;35.70
1381;DHT22;684;48.342;10.096;2022-10-26T07:50:25;15.80;35.60
1381;DHT22;684;48.342;10.096;2022-10-26T07:52:51;15.80;35.50
1381;DHT22;684;48.342;10.096;2022-10-26T07:55:18;15.80;35.40
1381;DHT22;684;48.342;10.096;2022-10-26T07:57:45;15.80;35.50
1381;DHT22;684;48.342;10.096;2022-10-26T08:00:13;15.80;35.50
1381;DHT22;684;48.342;10.096;2022-10-26T08:02:40;15.90;35.40
1381;DHT22;684;48.342;10.096;2022-10-26T08:05:07;15.90;35.50
1381;DHT22;684;48.342;10.096;2022-10-26T08:07:40;15.90;35.60
1381;DHT22;684;48.342;10.096;2022-10-26T08:10:09;15.90;35.90
1381;DHT22;684;48.342;10.096;2022-10-26T08:12:36;16.00;35.70
1381;DHT22;684;48.342;10.096;2022-10-26T08:15:04;16.80;36.00
1381;DHT22;684;48.342;10.096;2022-10-26T08:17:31;18.80;32.10
1381;DHT22;684;48.342;10.096;2022-10-26T08:19:57;20.50;27.70
1381;DHT22;684;48.342;10.096;2022-10-26T08:22:24;22.10;22.80
1381;DHT22;684;48.342;10.096;2022-10-26T08:24:52;22.50;19.90
1381;DHT22;684;48.342;10.096;2022-10-26T08:27:19;24.20;17.20
1381;DHT22;684;48.342;10.096;2022-10-26T08:29:46;24.60;14.60
1381;DHT22;684;48.342;10.096;2022-10-26T08:32:13;23.90;14.70
1381;DHT22;684;48.342;10.096;2022-10-26T08:34:39;23.40;15.50
1381;DHT22;684;48.342;10.096;2022-10-26T08:37:06;23.70;15.40
1381;DHT22;684;48.342;10.096;2022-10-26T08:39:33;25.50;12.90
1381;DHT22;684;48.342;10.096;2022-10-26T08:42:05;26.80;9.60
1381;DHT22;684;48.342;10.096;2022-10-26T08:44:36;27.10;9.20
1381;DHT22;684;48.342;10.096;2022-10-26T08:47:09;27.10;8.60
1381;DHT22;684;48.342;10.096;2022-10-26T08:49:43;26.10;9.10
1381;DHT22;684;48.342;10.096;2022-10-26T08:52:14;25.30;10.40
1381;DHT22;684;48.342;10.096;2022-10-26T08:54:47;25.20;10.80
1381;DHT22;684;48.342;10.096;2022-10-26T08:57:21;25.10;10.70
1381;DHT22;684;48.342;10.096;2022-10-26T08:59:55;25.00;10.70
1381;DHT22;684;48.342;10.096;2022-10-26T09:02:23;24.50;11.70
1381;DHT22;684;48.342;10.096;2022-10-26T09:04:51;23.90;12.50
1381;DHT22;684;48.342;10.096;2022-10-26T09:07:27;23.40;13.40
1381;DHT22;684;48.342;10.096;2022-10-26T09:10:03;23.00;14.40
1381;DHT22;684;48.342;10.096;2022-10-26T09:12:41;22.70;15.60
1381;DHT22;684;48.342;10.096;2022-10-26T09:15:18;22.50;15.90
1381;DHT22;684;48.342;10.096;2022-10-26T09:17:52;22.10;16.30
1381;DHT22;684;48.342;10.096;2022-10-26T09:20:47;21.80;17.10
1381;DHT22;684;48.342;10.096;2022-10-26T09:23:28;21.40;18.20
1381;DHT22;684;48.342;10.096;2022-10-26T09:25:58;21.00;18.70
1381;DHT22;684;48.342;10.096;2022-10-26T09:28:30;20.70;19.80
1381;DHT22;684;48.342;10.096;2022-10-26T09:31:01;20.40;20.50
1381;DHT22;684;48.342;10.096;2022-10-26T09:33:28;20.20;21.40
1381;DHT22;684;48.342;10.096;2022-10-26T09:35:59;20.00;21.90
1381;DHT22;684;48.342;10.096;2022-10-26T09:38:28;19.70;22.70
1381;DHT22;684;48.342;10.096;2022-10-26T09:41:00;19.60;23.20
1381;DHT22;684;48.342;10.096;2022-10-26T09:43:34;19.40;24.10
1381;DHT22;684;48.342;10.096;2022-10-26T09:46:04;19.30;24.80
1381;DHT22;684;48.342;10.096;2022-10-26T09:48:35;19.20;25.20
1381;DHT22;684;48.342;10.096;2022-10-26T09:51:04;19.10;25.60
1381;DHT22;684;48.342;10.096;2022-10-26T09:53:31;19.20;26.10
1381;DHT22;684;48.342;10.096;2022-10-26T09:56:02;19.30;25.90
1381;DHT22;684;48.342;10.096;2022-10-26T09:58:34;19.50;25.80
1381;DHT22;684;48.342;10.096;2022-10-26T10:01:02;19.70;25.30
1381;DHT22;684;48.342;10.096;2022-10-26T10:03:30;19.90;25.30
1381;DHT22;684;48.342;10.096;2022-10-26T10:06:15;20.00;24.70
1381;DHT22;684;48.342;10.096;2022-10-26T10:08:42;20.10;24.20
1381;DHT22;684;48.342;10.096;2022-10-26T10:11:12;20.20;23.90
1381;DHT22;684;48.342;10.096;2022-10-26T10:13:42;20.40;24.20
1381;DHT22;684;48.342;10.096;2022-10-26T10:16:11;20.50;24.10
1381;DHT22;684;48.342;10.096;2022-10-26T10:18:39;20.50;23.90
1381;DHT22;684;48.342;10.096;2022-10-26T10:21:08;20.40;23.40
1381;DHT22;684;48.342;10.096;2022-10-26T10:23:36;20.40;23.20
1381;DHT22;684;48.342;10.096;2022-10-26T10:26:11;20.40;23.60
1381;DHT22;684;48.342;10.096;2022-10-26T10:28:41;20.30;24.20
1381;DHT22;684;48.342;10.096;2022-10-26T10:31:18;20.30;24.40
1381;DHT22;684;48.342;10.096;2022-10-26T10:33:45;20.20;24.20
1381;DHT22;684;48.342;10.096;2022-10-26T10:36:15;20.20;23.80
1381;DHT22;684;48.342;10.096;2022-10-26T10:38:45;20.20;23.90
1381;DHT22;684;48.342;10.096;2022-10-26T10:41:18;20.20;24.50
1381;DHT22;684;48.342;10.096;2022-10-26T10:43:49;20.20;24.90
1381;DHT22;684;48.342;10.096;2022-10-26T10:46:21;20.30;24.70
1381;DHT22;684;48.342;10.096;2022-10-26T10:49:00;20.50;24.50
1381;DHT22;684;48.342;10.096;2022-10-26T10:51:29;20.70;24.30
1381;DHT22;684;48.342;10.096;2022-10-26T10:54:00;20.90;24.00
1381;DHT22;684;48.342;10.096;2022-10-26T10:56:33;21.00;23.30
1381;DHT22;684;48.342;10.096;2022-10-26T11:02:36;20.90;22.90
1381;DHT22;684;48.342;10.096;2022-10-26T11:05:20;20.80;23.00
1381;DHT22;684;48.342;10.096;2022-10-26T11:07:52;20.80;22.90
1381;DHT22;684;48.342;10.096;2022-10-26T11:10:22;20.90;22.50
1381;DHT22;684;48.342;10.096;2022-10-26T11:12:55;20.90;22.60
1381;DHT22;684;48.342;10.096;2022-10-26T11:15:27;20.90;22.80
1381;DHT22;684;48.342;10.096;2022-10-26T11:17:59;20.80;22.90
1381;DHT22;684;48.342;10.096;2022-10-26T11:20:31;20.80;22.40
1381;DHT22;684;48.342;10.096;2022-10-26T11:23:03;20.80;22.50
1381;DHT22;684;48.342;10.096;2022-10-26T11:25:34;20.80;22.40
1381;DHT22;684;48.342;10.096;2022-10-26T11:28:04;20.80;22.80
1381;DHT22;684;48.342;10.096;2022-10-26T11:30:43;21.00;22.90
1381;DHT22;684;48.342;10.096;2022-10-26T11:33:15;21.50;22.20
1381;DHT22;684;48.342;10.096;2022-10-26T11:35:46;21.70;20.10
1381;DHT22;684;48.342;10.096;2022-10-26T11:38:23;21.70;20.00
1381;DHT22;684;48.342;10.096;2022-10-26T11:40:55;21.90;19.60
1381;DHT22;684;48.342;10.096;2022-10-26T11:43:32;22.50;19.10
1381;DHT22;684;48.342;10.096;2022-10-26T11:46:05;23.60;17.50
1381;DHT22;684;48.342;10.096;2022-10-26T11:48:39;24.20;14.70
1381;DHT22;684;48.342;10.096;2022-10-26T11:51:15;24.70;14.80
1381;DHT22;684;48.342;10.096;2022-10-26T11:53:44;25.10;13.70
1381;DHT22;684;48.342;10.096;2022-10-26T11:56:16;25.40;12.70
1381;DHT22;684;48.342;10.096;2022-10-26T11:58:45;26.00;12.40
1381;DHT22;684;48.342;10.096;2022-10-26T12:01:14;26.20;11.50
1381;DHT22;684;48.342;10.096;2022-10-26T12:03:45;26.70;10.70
1381;DHT22;684;48.342;10.096;2022-10-26T12:06:14;27.30;10.10
1381;DHT22;684;48.342;10.096;2022-10-26T12:08:46;27.50;8.60
1381;DHT22;684;48.342;10.096;2022-10-26T12:11:30;27.30;8.40
1381;DHT22;684;48.342;10.096;2022-10-26T12:14:03;27.40;8.30
1381;DHT22;684;48.342;10.096;2022-10-26T12:16:45;27.50;7.80
1381;DHT22;684;48.342;10.096;2022-10-26T12:19:17;27.70;7.40
1381;DHT22;684;48.342;10.096;2022-10-26T12:21:48;27.80;7.30
1381;DHT22;684;48.342;10.096;2022-10-26T12:24:27;27.70;6.70
1381;DHT22;684;48.342;10.096;2022-10-26T12:26:55;27.70;7.10
1381;DHT22;684;48.342;10.096;2022-10-26T12:29:34;27.50;7.40
1381;DHT22;684;48.342;10.096;2022-10-26T12:34:57;26.30;8.50
1381;DHT22;684;48.342;10.096;2022-10-26T12:37:33;25.50;9.70
1381;DHT22;684;48.342;10.096;2022-10-26T12:40:38;24.90;10.50
1381;DHT22;684;48.342;10.096;2022-10-26T12:43:31;24.40;11.70
1381;DHT22;684;48.342;10.096;2022-10-26T12:52:39;23.50;14.10
1381;DHT22;684;48.342;10.096;2022-10-26T12:55:38;23.30;14.80
1381;DHT22;684;48.342;10.096;2022-10-26T13:04:53;22.90;16.40
1381;DHT22;684;48.342;10.096;2022-10-26T13:07:26;22.80;16.40
1381;DHT22;684;48.342;10.096;2022-10-26T13:09:59;22.70;17.00
1381;DHT22;684;48.342;10.096;2022-10-26T13:12:34;22.70;16.80
1381;DHT22;684;48.342;10.096;2022-10-26T13:15:04;22.70;16.80
1381;DHT22;684;48.342;10.096;2022-10-26T13:17:33;22.80;17.00
1381;DHT22;684;48.342;10.096;2022-10-26T13:20:03;22.80;16.80
1381;DHT22;684;48.342;10.096;2022-10-26T13:22:31;22.90;16.90
1381;DHT22;684;48.342;10.096;2022-10-26T13:25:00;22.80;17.40
1381;DHT22;684;48.342;10.096;2022-10-26T13:27:42;22.80;17.70
1381;DHT22;684;48.342;10.096;2022-10-26T13:30:19;22.70;18.60
1381;DHT22;684;48.342;10.096;2022-10-26T13:32:50;22.60;18.10
1381;DHT22;684;48.342;10.096;2022-10-26T13:35:21;22.60;18.10
1381;DHT22;684;48.342;10.096;2022-10-26T13:37:50;22.50;17.70
1381;DHT22;684;48.342;10.096;2022-10-26T13:40:20;22.40;17.40
1381;DHT22;684;48.342;10.096;2022-10-26T13:42:50;22.30;18.60
1381;DHT22;684;48.342;10.096;2022-10-26T13:45:20;22.20;18.30
1381;DHT22;684;48.342;10.096;2022-10-26T13:47:54;22.20;18.00
1381;DHT22;684;48.342;10.096;2022-10-26T13:50:24;22.10;18.40
1381;DHT22;684;48.342;10.096;2022-10-26T13:52:54;22.10;18.50
1381;DHT22;684;48.342;10.096;2022-10-26T13:55:25;22.10;18.30
1381;DHT22;684;48.342;10.096;2022-10-26T13:58:01;22.10;18.70
1381;DHT22;684;48.342;10.096;2022-10-26T14:00:29;22.10;18.80
1381;DHT22;684;48.342;10.096;2022-10-26T14:02:56;22.20;19.50
1381;DHT22;684;48.342;10.096;2022-10-26T14:05:24;22.20;18.30
1381;DHT22;684;48.342;10.096;2022-10-26T14:07:53;22.20;17.90
1381;DHT22;684;48.342;10.096;2022-10-26T14:10:26;22.30;18.50
1381;DHT22;684;48.342;10.096;2022-10-26T14:12:53;22.30;18.80
1381;DHT22;684;48.342;10.096;2022-10-26T14:15:23;22.30;18.40
1381;DHT22;684;48.342;10.096;2022-10-26T14:17:52;22.30;18.50
1381;DHT22;684;48.342;10.096;2022-10-26T14:20:22;22.20;18.80
1381;DHT22;684;48.342;10.096;2022-10-26T14:22:51;22.20;19.30
1381;DHT22;684;48.342;10.096;2022-10-26T14:25:20;22.10;19.20
1381;DHT22;684;48.342;10.096;2022-10-26T14:27:50;22.10;19.20
1381;DHT22;684;48.342;10.096;2022-10-26T14:30:21;22.10;19.40
1381;DHT22;684;48.342;10.096;2022-10-26T14:32:49;22.00;19.20
1381;DHT22;684;48.342;10.096;2022-10-26T14:35:17;21.90;19.20
1381;DHT22;684;48.342;10.096;2022-10-26T14:37:47;21.90;19.30
1381;DHT22;684;48.342;10.096;2022-10-26T14:40:18;21.80;19.40
1381;DHT22;684;48.342;10.096;2022-10-26T14:42:47;21.70;19.80
1381;DHT22;684;48.342;10.096;2022-10-26T14:45:21;21.70;19.70
1381;DHT22;684;48.342;10.096;2022-10-26T14:47:48;21.70;19.70
1381;DHT22;684;48.342;10.096;2022-10-26T14:50:17;21.60;20.00
1381;DHT22;684;48.342;10.096;2022-10-26T14:52:49;21.60;20.10
1381;DHT22;684;48.342;10.096;2022-10-26T14:55:18;21.60;20.40
1381;DHT22;684;48.342;10.096;2022-10-26T14:57:47;21.60;20.50
1381;DHT22;684;48.342;10.096;2022-10-26T15:00:16;21.50;20.10
1381;DHT22;684;48.342;10.096;2022-10-26T15:02:45;21.50;20.10
1381;DHT22;684;48.342;10.096;2022-10-26T15:05:18;21.40;20.50
1381;DHT22;684;48.342;10.096;2022-10-26T15:07:46;21.30;20.50
1381;DHT22;684;48.342;10.096;2022-10-26T15:10:45;21.20;20.80
1381;DHT22;684;48.342;10.096;2022-10-26T15:13:20;21.10;21.40
1381;DHT22;684;48.342;10.096;2022-10-26T15:15:48;21.00;21.70
1381;DHT22;684;48.342;10.096;2022-10-26T15:18:19;20.90;21.80
1381;DHT22;684;48.342;10.096;2022-10-26T15:20:48;20.80;21.90
1381;DHT22;684;48.342;10.096;2022-10-26T15:23:16;20.80;22.40
1381;DHT22;684;48.342;10.096;2022-10-26T15:25:51;20.70;22.60
1381;DHT22;684;48.342;10.096;2022-10-26T15:28:24;20.60;22.80
1381;DHT22;684;48.342;10.096;2022-10-26T15:30:58;20.60;22.90
1381;DHT22;684;48.342;10.096;2022-10-26T15:33:25;20.50;23.30
1381;DHT22;684;48.342;10.096;2022-10-26T15:36:11;20.40;23.30
1381;DHT22;684;48.342;10.096;2022-10-26T15:38:38;20.30;23.80
1381;DHT22;684;48.342;10.096;2022-10-26T15:41:13;20.20;23.80
1381;DHT22;684;48.342;10.096;2022-10-26T15:43:41;20.20;24.20
1381;DHT22;684;48.342;10.096;2022-10-26T15:46:08;20.10;24.40
1381;DHT22;684;48.342;10.096;2022-10-26T15:48:35;20.00;24.60
1381;DHT22;684;48.342;10.096;2022-10-26T15:51:01;19.90;24.80
1381;DHT22;684;48.342;10.096;2022-10-26T15:53:28;19.90;25.00
1381;DHT22;684;48.342;10.096;2022-10-26T15:55:57;19.80;25.00
1381;DHT22;684;48.342;10.096;2022-10-26T15:58:26;19.70;25.30
1381;DHT22;684;48.342;10.096;2022-10-26T16:00:53;19.60;25.60
1381;DHT22;684;48.342;10.096;2022-10-26T16:03:21;19.50;25.80
1381;DHT22;684;48.342;10.096;2022-10-26T16:05:54;19.40;26.00
1381;DHT22;684;48.342;10.096;2022-10-26T16:08:22;19.50;26.60
1381;DHT22;684;48.342;10.096;2022-10-26T16:10:49;19.40;26.70
1381;DHT22;684;48.342;10.096;2022-10-26T16:13:16;19.30;26.80
1381;DHT22;684;48.342;10.096;2022-10-26T16:15:44;19.20;27.00
1381;DHT22;684;48.342;10.096;2022-10-26T16:18:11;19.10;27.50
1381;DHT22;684;48.342;10.096;2022-10-26T16:20:38;19.10;27.70
1381;DHT22;684;48.342;10.096;2022-10-26T16:23:05;19.00;27.70
1381;DHT22;684;48.342;10.096;2022-10-26T16:25:39;19.00;27.90
1381;DHT22;684;48.342;10.096;2022-10-26T16:28:06;19.00;28.20
1381;DHT22;684;48.342;10.096;2022-10-26T16:30:33;18.90;28.20
1381;DHT22;684;48.342;10.096;2022-10-26T16:33:02;18.80;28.30
1381;DHT22;684;48.342;10.096;2022-10-26T16:35:29;18.70;28.50
1381;DHT22;684;48.342;10.096;2022-10-26T16:37:56;18.60;28.70
1381;DHT22;684;48.342;10.096;2022-10-26T16:40:22;18.60;28.90
1381;DHT22;684;48.342;10.096;2022-10-26T16:42:49;18.50;29.00
1381;DHT22;684;48.342;10.096;2022-10-26T16:45:16;18.50;29.20
1381;DHT22;684;48.342;10.096;2022-10-26T16:47:43;18.40;29.40
1381;DHT22;684;48.342;10.096;2022-10-26T16:50:12;18.40;29.70
1381;DHT22;684;48.342;10.096;2022-10-26T16:52:39;18.30;30.10